Time;durP1;ratioP1;P1;durP2;ratioP2;P2;SDS_P1;SDS_P2;PMS_P1;PMS_P2;Temp;Humidity;BMP_temperature;BMP_pressure;BME280_temperature;BME280_humidity;BME280_pressure;Samples;Min_cycle;Max_cycle;Signal;HPM_P1;HPM_P2
2023/12/17 00:01:37;;;;;;;;;;;;;;;3.52;75.49;101727.63;5099074;28;19897;-82
2023/12/17 00:04:03;;;;;;;;;;;;;;;3.53;75.40;101737.16;5100350;28;19917;-83
2023/12/17 00:06:28;;;;;;;;;;;;;;;3.53;75.49;101731.91;5081797;28;19903;-83
2023/12/17 00:08:54;;;;;;;;;;;;;;;3.54;75.34;101738.00;5098163;28;19909;-83
2023/12/17 00:11:19;;;;;;;;;;;;;;;3.54;75.40;101738.00;5080320;28;19904;-82
2023/12/17 00:13:45;;;;;;;;;;;;;;;3.51;74.84;101736.38;5098137;28;19912;-82
2023/12/17 00:16:10;;;;;;;;;;;;;;;3.48;75.25;101737.38;5081590;28;19920;-83
2023/12/17 00:18:36;;;;;;;;;;;;;;;3.48;75.65;101750.44;5080601;28;19981;-83
2023/12/17 00:21:01;;;;;;;;;;;;;;;3.47;75.43;101743.53;5098055;28;19919;-82
2023/12/17 00:23:27;;;;;;;;;;;;;;;3.44;75.19;101748.06;5097817;28;19923;-82
2023/12/17 00:25:52;;;;;;;;;;;;;;;3.42;75.41;101750.75;5096458;28;19897;-82
2023/12/17 00:28:18;;;;;;;;;;;;;;;3.43;75.30;101754.22;5097490;28;19919;-83
2023/12/17 00:30:44;;;;;;;;;;;;;;;3.42;75.45;101752.53;5097268;28;19913;-83
2023/12/17 00:33:10;;;;;;;;;;;;;;;3.41;75.44;101759.50;5078947;28;19919;-82
2023/12/17 00:35:36;;;;;;;;;;;;;;;3.39;75.33;101766.56;5096477;28;19912;-82
2023/12/17 00:38:01;;;;;;;;;;;;;;;3.38;75.42;101766.66;5076611;28;19955;-82
2023/12/17 00:40:26;;;;;;;;;;;;;;;3.36;74.95;101771.09;5076933;28;19934;-82
2023/12/17 00:42:52;;;;;;;;;;;;;;;3.37;75.58;101775.41;5078916;28;19980;-82
2023/12/17 00:45:17;;;;;;;;;;;;;;;3.34;75.08;101772.94;5097957;28;19984;-83
2023/12/17 00:47:43;;;;;;;;;;;;;;;3.32;75.36;101773.03;5080998;28;19912;-83
2023/12/17 00:50:08;;;;;;;;;;;;;;;3.29;75.51;101765.34;5081073;28;19912;-82
2023/12/17 00:52:34;;;;;;;;;;;;;;;3.30;75.29;101763.59;5078404;28;19912;-83
2023/12/17 00:54:59;;;;;;;;;;;;;;;3.31;75.00;101773.09;5081896;28;19913;-83
2023/12/17 00:57:28;;;;;;;;;;;;;;;3.24;74.99;101769.13;5099558;28;19903;-82
2023/12/17 01:00:06;;;;;;;;;;;;;;;3.20;75.26;101773.66;5100266;28;19928;-83
2023/12/17 01:02:34;;;;;;;;;;;;;;;3.19;75.54;101785.84;5100988;28;19943;-82
2023/12/17 01:05:00;;;;;;;;;;;;;;;3.19;75.28;101780.63;5083805;28;19927;-82
2023/12/17 01:07:41;;;;;;;;;;;;;;;3.16;75.43;101786.00;5101368;28;19904;-82
2023/12/17 01:10:08;;;;;;;;;;;;;;;3.16;75.43;101787.75;5101189;28;19904;-84
2023/12/17 01:12:46;;;;;;;;;;;;;;;3.16;75.41;101782.53;5101190;28;20010;-83
2023/12/17 01:15:14;;;;;;;;;;;;;;;3.19;75.33;101790.22;5100668;28;19921;-82
2023/12/17 01:17:43;;;;;;;;;;;;;;;3.22;75.33;101794.44;5083079;28;19912;-83
2023/12/17 01:20:38;;;;;;;;;;;;;;;3.16;75.31;101793.00;5083603;28;19912;-82
2023/12/17 01:23:13;;;;;;;;;;;;;;;3.15;75.27;101789.53;5101370;28;19904;-82
2023/12/17 01:25:53;;;;;;;;;;;;;;;3.15;75.74;101789.53;5093928;28;19920;-82
2023/12/17 01:28:45;;;;;;;;;;;;;;;3.15;75.26;101783.47;5097558;28;19920;-83
2023/12/17 01:31:12;;;;;;;;;;;;;;;3.12;75.75;101779.25;5099112;28;19905;-83
2023/12/17 01:33:40;;;;;;;;;;;;;;;3.13;75.49;101777.47;5101263;28;20212;-83
2023/12/17 01:38:44;;;;;;;;;;;;;;;3.13;75.40;101778.31;5059308;28;19916;-84
2023/12/17 01:41:57;;;;;;;;;;;;;;;3.12;75.94;101781.00;5020493;28;19949;-82
2023/12/17 01:44:51;;;;;;;;;;;;;;;3.11;75.66;101774.09;4981713;28;19996;-83
2023/12/17 01:47:21;;;;;;;;;;;;;;;3.11;76.09;101774.94;4981209;28;19923;-83
2023/12/17 01:49:49;;;;;;;;;;;;;;;3.12;76.21;101778.41;5000742;28;19926;-84
2023/12/17 01:52:31;;;;;;;;;;;;;;;3.15;75.71;101775.63;4999375;28;19906;-83
2023/12/17 01:58:36;;;;;;;;;;;;;;;3.10;75.55;101773.25;5020312;28;19993;-83
2023/12/17 02:04:19;;;;;;;;;;;;;;;3.09;75.83;101776.78;5129873;22;19916;-83
2023/12/17 02:07:05;;;;;;;;;;;;;;;3.05;75.87;101763.97;6043522;22;19929;-84
2023/12/17 02:15:58;;;;;;;;;;;;;;;3.07;75.65;101769.94;5035689;28;19932;-84
2023/12/17 02:18:27;;;;;;;;;;;;;;;3.06;75.86;101766.50;4999590;28;19953;-82
2023/12/17 02:20:54;;;;;;;;;;;;;;;3.06;75.42;101766.50;5000311;28;19906;-83
2023/12/17 02:23:27;;;;;;;;;;;;;;;3.07;75.51;101767.34;4983296;28;19958;-83
2023/12/17 02:25:53;;;;;;;;;;;;;;;3.05;75.67;101770.03;5000243;28;19922;-82
2023/12/17 02:28:47;;;;;;;;;;;;;;;3.02;75.59;101767.56;4982803;28;19918;-82
2023/12/17 02:31:25;;;;;;;;;;;;;;;3.07;75.47;101765.56;4999589;28;19907;-82
2023/12/17 02:33:51;;;;;;;;;;;;;;;3.05;75.74;101769.19;4997353;28;19898;-81
2023/12/17 02:36:16;;;;;;;;;;;;;;;3.07;75.69;101770.78;4995201;28;19925;-81
2023/12/17 02:38:43;;;;;;;;;;;;;;;3.02;75.36;101769.34;4993207;28;19933;-81
2023/12/17 02:41:09;;;;;;;;;;;;;;;3.02;75.29;101778.00;4985039;28;19945;-80
2023/12/17 02:43:35;;;;;;;;;;;;;;;3.05;75.66;101770.03;4994753;28;19898;-81
2023/12/17 02:46:00;;;;;;;;;;;;;;;3.02;75.72;101767.56;4977029;28;19945;-82
2023/12/17 02:48:26;;;;;;;;;;;;;;;3.01;75.27;101771.09;4997754;28;20410;-81
2023/12/17 02:50:51;;;;;;;;;;;;;;;2.98;75.43;101771.25;5034943;28;19977;-82
2023/12/17 02:53:17;;;;;;;;;;;;;;;2.95;75.79;101766.16;5034560;28;19932;-82
2023/12/17 02:55:42;;;;;;;;;;;;;;;2.94;75.31;101764.47;5032964;28;20383;-82
2023/12/17 02:58:08;;;;;;;;;;;;;;;2.94;75.33;101764.47;5030821;28;19981;-82
2023/12/17 03:00:33;;;;;;;;;;;;;;;2.97;75.92;101768.69;5031910;28;19913;-81
2023/12/17 03:02:59;;;;;;;;;;;;;;;2.94;75.13;101769.69;5017616;28;19941;-82
2023/12/17 03:05:27;;;;;;;;;;;;;;;2.93;75.15;101772.34;5021283;28;19910;-82
2023/12/17 03:07:54;;;;;;;;;;;;;;;2.92;75.61;101770.66;5021144;28;19906;-82
2023/12/17 03:10:19;;;;;;;;;;;;;;;2.93;75.45;101781.03;5033674;28;19967;-82
2023/12/17 03:12:48;;;;;;;;;;;;;;;2.92;75.51;101781.09;5035610;28;19901;-82
2023/12/17 03:15:47;;;;;;;;;;;;;;;2.89;75.84;101787.31;5038509;28;19917;-82
2023/12/17 03:18:14;;;;;;;;;;;;;;;2.89;75.65;101789.94;5037974;28;19905;-82
2023/12/17 03:20:41;;;;;;;;;;;;;;;2.88;75.56;101790.84;5035649;28;19985;-82
2023/12/17 03:23:07;;;;;;;;;;;;;;;2.85;75.78;101784.00;5020180;28;19977;-82
2023/12/17 03:28:42;;;;;;;;;;;;;;;2.82;75.68;101793.75;5039344;28;19912;-81
2023/12/17 03:31:14;;;;;;;;;;;;;;;2.80;76.33;101791.22;5038260;28;19906;-82
2023/12/17 03:33:40;;;;;;;;;;;;;;;2.81;75.84;101795.50;5038653;28;19929;-81
2023/12/17 03:36:06;;;;;;;;;;;;;;;2.82;75.93;101799.81;5021880;28;19906;-81
2023/12/17 03:41:41;;;;;;;;;;;;;;;2.81;75.79;101802.50;5039070;28;19912;-82
2023/12/17 03:44:06;;;;;;;;;;;;;;;2.77;75.55;101799.19;5092217;22;19913;-82
2023/12/17 03:46:56;;;;;;;;;;;;;;;2.78;75.59;101794.81;5078832;28;19936;-82
2023/12/17 03:49:23;;;;;;;;;;;;;;;2.76;75.29;101800.09;5075853;28;19927;-82
2023/12/17 03:51:49;;;;;;;;;;;;;;;2.78;75.46;101798.28;5022537;28;20332;-82
2023/12/17 03:54:16;;;;;;;;;;;;;;;2.76;75.53;101794.03;5054176;28;19984;-81
2023/12/17 03:56:45;;;;;;;;;;;;;;;2.76;75.37;101801.88;5076945;28;19903;-81
2023/12/17 03:59:10;;;;;;;;;;;;;;;2.72;75.17;101792.50;5059168;28;19912;-81
2023/12/17 04:01:43;;;;;;;;;;;;;;;2.70;75.14;101796.94;5076752;28;19904;-82
2023/12/17 04:04:08;;;;;;;;;;;;;;;2.71;75.45;101806.47;5060572;28;19911;-81
2023/12/17 04:06:40;;;;;;;;;;;;;;;2.70;75.61;101807.38;5077748;28;19897;-82
2023/12/17 04:09:16;;;;;;;;;;;;;;;2.75;75.04;101800.19;5077834;28;19920;-82
2023/12/17 04:11:44;;;;;;;;;;;;;;;2.71;75.04;101803.84;5077591;28;19912;-82
2023/12/17 04:14:16;;;;;;;;;;;;;;;2.72;75.21;101806.38;5077524;28;19917;-82
2023/12/17 04:17:00;;;;;;;;;;;;;;;2.72;75.23;101808.16;5060969;28;19988;-81
2023/12/17 04:19:34;;;;;;;;;;;;;;;2.64;74.45;101803.28;5078707;28;19920;-82
2023/12/17 04:25:00;;;;;;;;;;;;;;;2.59;74.73;101805.28;5330441;22;19923;-82
2023/12/17 04:34:08;;;;;;;;;;;;;;;2.55;74.93;101817.59;6122802;22;20814;-85
2023/12/17 04:37:23;;;;;;;;;;;;;;;2.59;75.29;101817.47;5081979;28;20083;-82
2023/12/17 04:40:07;;;;;;;;;;;;;;;2.54;74.74;101817.69;5251295;22;19936;-83
2023/12/17 04:45:22;;;;;;;;;;;;;;;2.57;75.23;101827.13;5357077;22;19940;-81
2023/12/17 04:48:10;;;;;;;;;;;;;;;2.63;74.71;101825.06;5028047;28;19909;-81
2023/12/17 04:50:43;;;;;;;;;;;;;;;2.63;74.71;101832.06;5108331;22;19916;-82
2023/12/17 04:53:10;;;;;;;;;;;;;;;2.64;74.90;101833.75;5085337;22;19921;-82
2023/12/17 04:55:38;;;;;;;;;;;;;;;2.66;74.96;101837.13;5044451;28;19909;-81
2023/12/17 05:00:59;;;;;;;;;;;;;;;2.69;74.54;101834.38;5351333;22;19909;-82
2023/12/17 05:06:19;;;;;;;;;;;;;;;2.64;74.75;101837.19;5287463;22;19922;-83
2023/12/17 05:08:48;;;;;;;;;;;;;;;2.64;75.14;101837.19;5081634;28;19992;-83
2023/12/17 05:11:46;;;;;;;;;;;;;;;2.61;75.24;101829.50;5081483;28;19964;-82
2023/12/17 05:14:48;;;;;;;;;;;;;;;2.61;74.89;101833.88;5060695;28;19976;-82
2023/12/17 05:17:18;;;;;;;;;;;;;;;2.62;74.81;101838.19;5060025;28;19928;-82
2023/12/17 05:19:55;;;;;;;;;;;;;;;2.64;75.69;101844.19;5059518;28;19928;-82
2023/12/17 05:22:40;;;;;;;;;;;;;;;2.67;75.22;101844.03;5060351;28;19932;-83
2023/12/17 05:25:40;;;;;;;;;;;;;;;2.65;75.32;101840.66;5155012;22;19909;-82
2023/12/17 05:28:08;;;;;;;;;;;;;;;2.65;75.29;101846.72;5101331;28;19904;-81
2023/12/17 05:30:47;;;;;;;;;;;;;;;2.66;74.73;101843.19;5211114;22;19984;-83
2023/12/17 05:33:15;;;;;;;;;;;;;;;2.66;74.46;101842.34;5080870;28;19908;-83
2023/12/17 05:35:54;;;;;;;;;;;;;;;2.67;74.60;101846.66;5045788;28;19911;-83
2023/12/17 05:38:32;;;;;;;;;;;;;;;2.70;74.81;101846.50;5063864;28;19905;-83
2023/12/17 05:41:04;;;;;;;;;;;;;;;2.64;74.04;101845.03;5080909;28;19921;-83
2023/12/17 05:43:30;;;;;;;;;;;;;;;2.61;74.44;101846.94;5080230;28;19905;-82
2023/12/17 05:48:53;;;;;;;;;;;;;;;2.51;74.09;101856.94;5170285;22;19947;-82
2023/12/17 05:51:43;;;;;;;;;;;;;;;2.51;74.15;101855.16;5023004;28;19929;-82
2023/12/17 05:54:10;;;;;;;;;;;;;;;2.48;73.69;101860.53;5032367;28;20425;-82
2023/12/17 05:56:40;;;;;;;;;;;;;;;2.40;73.21;101862.63;4998827;28;19940;-82
2023/12/17 05:59:07;;;;;;;;;;;;;;;2.34;73.48;101862.91;5014361;28;19914;-82
2023/12/17 06:01:33;;;;;;;;;;;;;;;2.37;72.67;101867.97;5015727;28;19953;-82
2023/12/17 06:03:58;;;;;;;;;;;;;;;2.40;73.28;101864.41;4999604;28;19929;-82
2023/12/17 06:06:24;;;;;;;;;;;;;;;2.34;72.64;101870.72;5014888;28;19920;-82
2023/12/17 06:08:51;;;;;;;;;;;;;;;2.37;72.53;101874.97;5015690;28;19913;-82
2023/12/17 06:11:17;;;;;;;;;;;;;;;2.40;72.49;101875.66;4999209;28;19914;-82
2023/12/17 06:13:44;;;;;;;;;;;;;;;2.42;72.52;101873.84;5014469;28;20000;-82
2023/12/17 06:16:10;;;;;;;;;;;;;;;2.41;72.62;101876.50;4996748;28;19952;-82
2023/12/17 06:18:35;;;;;;;;;;;;;;;2.42;72.39;101879.06;5014212;28;19898;-82
2023/12/17 06:21:01;;;;;;;;;;;;;;;2.47;72.62;101886.66;5014194;28;19914;-82
2023/12/17 06:23:27;;;;;;;;;;;;;;;2.48;72.68;101890.97;5014583;28;19929;-82
2023/12/17 06:25:53;;;;;;;;;;;;;;;2.50;72.99;101887.38;5000004;28;19985;-82
2023/12/17 06:28:20;;;;;;;;;;;;;;;2.46;71.91;101887.59;5000680;28;19921;-82
2023/12/17 06:30:55;;;;;;;;;;;;;;;2.49;72.50;101882.22;5018519;28;19913;-81
2023/12/17 06:33:21;;;;;;;;;;;;;;;2.50;72.45;101884.78;5017715;28;19898;-82
2023/12/17 06:35:47;;;;;;;;;;;;;;;2.52;72.23;101892.53;5016489;28;19945;-82
2023/12/17 06:38:14;;;;;;;;;;;;;;;2.53;71.47;101899.44;4999779;28;19945;-82
2023/12/17 06:40:40;;;;;;;;;;;;;;;2.52;71.62;101897.75;5001026;28;19914;-82
2023/12/17 06:43:08;;;;;;;;;;;;;;;2.53;71.80;101899.44;5039755;28;19901;-82
2023/12/17 06:45:34;;;;;;;;;;;;;;;2.58;72.18;101901.81;5057460;28;19920;-82
2023/12/17 06:48:02;;;;;;;;;;;;;;;2.61;71.61;101906.91;5055451;28;19921;-82
2023/12/17 06:50:27;;;;;;;;;;;;;;;2.66;72.00;101915.38;5038349;28;19971;-81
2023/12/17 06:52:53;;;;;;;;;;;;;;;2.62;70.78;101911.22;5053853;28;19897;-82
2023/12/17 06:55:18;;;;;;;;;;;;;;;2.60;71.46;101910.44;5053902;28;19920;-82
2023/12/17 06:57:47;;;;;;;;;;;;;;;2.61;72.34;101910.34;5053267;28;19905;-82
2023/12/17 07:00:14;;;;;;;;;;;;;;;2.65;72.28;101908.47;5055791;28;19921;-82
2023/12/17 07:02:41;;;;;;;;;;;;;;;2.59;71.12;101908.75;5055679;28;19913;-82
2023/12/17 07:05:11;;;;;;;;;;;;;;;2.65;71.26;101913.69;5053403;28;19928;-82
2023/12/17 07:07:37;;;;;;;;;;;;;;;2.69;71.56;101916.06;5039574;28;19936;-82
2023/12/17 07:10:03;;;;;;;;;;;;;;;2.71;71.28;101905.56;5055816;28;19913;-82
2023/12/17 07:12:28;;;;;;;;;;;;;;;2.73;71.22;101911.56;5055241;28;19913;-82
2023/12/17 07:14:54;;;;;;;;;;;;;;;2.72;71.80;101908.09;5055067;28;19898;-82
2023/12/17 07:17:19;;;;;;;;;;;;;;;2.70;71.41;101907.34;5052933;28;19918;-82
2023/12/17 07:19:45;;;;;;;;;;;;;;;2.72;70.50;101905.50;5035579;28;19927;-82
2023/12/17 07:22:10;;;;;;;;;;;;;;;2.78;71.34;101913.06;5052659;28;19949;-82
2023/12/17 07:24:36;;;;;;;;;;;;;;;2.79;71.03;101914.75;5034583;28;19917;-81
2023/12/17 07:27:01;;;;;;;;;;;;;;;2.86;71.02;101917.91;5031326;28;19936;-82
2023/12/17 07:29:27;;;;;;;;;;;;;;;2.83;71.09;101918.91;5050280;28;19913;-82
2023/12/17 07:31:52;;;;;;;;;;;;;;;2.84;70.98;101914.53;5051374;28;19916;-82
2023/12/17 07:34:18;;;;;;;;;;;;;;;2.79;71.04;101916.50;5052891;28;19917;-82
2023/12/17 07:36:43;;;;;;;;;;;;;;;2.87;71.43;101917.00;5034637;28;19917;-81
2023/12/17 07:39:09;;;;;;;;;;;;;;;2.85;70.81;101918.84;5043425;28;19936;-81
2023/12/17 07:41:34;;;;;;;;;;;;;;;2.92;71.01;101927.22;5046131;28;19913;-81
2023/12/17 07:43:59;;;;;;;;;;;;;;;2.95;70.46;101920.09;5046847;28;19917;-81
2023/12/17 07:46:25;;;;;;;;;;;;;;;3.05;71.27;101928.38;5045882;28;19913;-81
2023/12/17 07:48:50;;;;;;;;;;;;;;;3.03;70.15;101917.16;5045484;28;19921;-81
2023/12/17 07:51:16;;;;;;;;;;;;;;;3.08;70.54;101921.25;5026947;28;19914;-81
2023/12/17 07:53:41;;;;;;;;;;;;;;;3.11;70.59;101923.72;5042897;28;19905;-81
2023/12/17 07:56:07;;;;;;;;;;;;;;;3.15;70.37;101919.19;5025965;28;20015;-81
2023/12/17 07:58:33;;;;;;;;;;;;;;;3.19;70.69;101918.13;5044071;28;19969;-81
2023/12/17 08:00:58;;;;;;;;;;;;;;;3.19;70.29;101916.38;5037200;28;19948;-80
2023/12/17 08:03:24;;;;;;;;;;;;;;;3.17;69.48;101912.97;5038073;28;20306;-81
2023/12/17 08:05:49;;;;;;;;;;;;;;;3.15;69.74;101914.81;5042471;28;19936;-81
2023/12/17 08:08:15;;;;;;;;;;;;;;;3.16;68.98;101918.28;5045740;28;19913;-81
2023/12/17 08:10:41;;;;;;;;;;;;;;;3.16;69.26;101911.28;5031864;28;19920;-81
2023/12/17 08:13:06;;;;;;;;;;;;;;;3.13;69.23;101907.97;5050775;28;19909;-81
2023/12/17 08:15:31;;;;;;;;;;;;;;;3.12;68.85;101904.53;5048355;28;19913;-80
2023/12/17 08:17:57;;;;;;;;;;;;;;;3.14;68.66;101900.09;5030646;28;19912;-81
2023/12/17 08:20:22;;;;;;;;;;;;;;;3.20;69.48;101901.56;5047157;28;19924;-81
2023/12/17 08:22:47;;;;;;;;;;;;;;;3.22;68.53;101901.47;5030409;28;19928;-81
2023/12/17 08:25:13;;;;;;;;;;;;;;;3.18;69.20;101896.41;5028948;28;19925;-80
2023/12/17 08:27:38;;;;;;;;;;;;;;;3.21;68.59;101905.00;5044480;28;20382;-80
2023/12/17 08:30:04;;;;;;;;;;;;;;;3.23;68.53;101900.56;5044949;28;19953;-80
2023/12/17 08:32:33;;;;;;;;;;;;;;;3.21;67.50;101892.81;5043753;28;19913;-80
2023/12/17 08:34:59;;;;;;;;;;;;;;;3.21;68.71;101890.19;5044598;28;19920;-80
2023/12/17 08:37:26;;;;;;;;;;;;;;;3.21;67.39;101892.81;5044680;28;19967;-80
2023/12/17 08:39:52;;;;;;;;;;;;;;;3.24;68.31;101886.59;5045965;28;19913;-81
2023/12/17 08:42:17;;;;;;;;;;;;;;;3.31;68.38;101890.59;5028567;28;19979;-81
2023/12/17 08:44:43;;;;;;;;;;;;;;;3.35;68.02;101879.94;5044521;28;19921;-81
2023/12/17 08:47:08;;;;;;;;;;;;;;;3.36;67.62;101881.63;5045615;28;20390;-81
2023/12/17 08:49:33;;;;;;;;;;;;;;;3.41;67.62;101873.56;5026099;28;19979;-81
2023/12/17 08:51:59;;;;;;;;;;;;;;;3.51;68.09;101864.34;5026587;28;20390;-80
2023/12/17 08:54:24;;;;;;;;;;;;;;;3.53;68.21;101857.28;5045180;28;19913;-80
2023/12/17 08:56:50;;;;;;;;;;;;;;;3.59;67.42;101850.91;5044261;28;19921;-80
2023/12/17 08:59:15;;;;;;;;;;;;;;;3.61;65.92;101849.91;5044548;28;19971;-81
2023/12/17 09:01:40;;;;;;;;;;;;;;;3.70;66.21;101840.75;5043493;28;19917;-81
2023/12/17 09:04:06;;;;;;;;;;;;;;;3.80;67.68;101839.41;5045693;28;19936;-81
2023/12/17 09:06:39;;;;;;;;;;;;;;;3.78;65.33;101836.88;5027127;28;19914;-81
2023/12/17 09:09:05;;;;;;;;;;;;;;;3.86;66.32;101838.25;5026872;28;19913;-81
2023/12/17 09:11:32;;;;;;;;;;;;;;;3.82;65.81;101837.56;5045910;28;19920;-81
2023/12/17 09:13:58;;;;;;;;;;;;;;;3.88;66.17;101833.78;5046724;28;19913;-81
2023/12/17 09:16:23;;;;;;;;;;;;;;;3.90;64.29;101831.94;5044995;28;19916;-81
2023/12/17 09:18:49;;;;;;;;;;;;;;;3.96;65.65;101829.84;5029250;28;20401;-81
2023/12/17 09:21:14;;;;;;;;;;;;;;;3.95;65.07;101828.16;5048082;28;19910;-81
2023/12/17 09:23:40;;;;;;;;;;;;;;;4.03;65.23;101825.16;5046499;28;19924;-81
2023/12/17 09:26:05;;;;;;;;;;;;;;;4.06;65.11;101815.38;5046833;28;20382;-81
2023/12/17 09:28:31;;;;;;;;;;;;;;;4.11;64.89;101813.38;5024984;28;19946;-81
2023/12/17 09:30:57;;;;;;;;;;;;;;;4.17;65.12;101817.41;5040313;28;19920;-82
2023/12/17 09:33:23;;;;;;;;;;;;;;;4.26;65.95;101826.53;5021615;28;19916;-82
2023/12/17 09:35:49;;;;;;;;;;;;;;;4.28;65.41;101828.16;5036767;28;20314;-82
2023/12/17 09:38:15;;;;;;;;;;;;;;;4.26;63.65;101826.53;5036145;28;20063;-82
2023/12/17 09:40:41;;;;;;;;;;;;;;;4.28;64.22;101820.31;5035041;28;19913;-82
2023/12/17 09:43:09;;;;;;;;;;;;;;;4.33;64.35;101827.91;5035903;28;19917;-83
2023/12/17 09:45:35;;;;;;;;;;;;;;;4.36;64.89;101828.59;5016774;28;19920;-83
2023/12/17 09:48:01;;;;;;;;;;;;;;;4.34;63.98;101833.06;5015945;28;19921;-83
2023/12/17 09:50:27;;;;;;;;;;;;;;;4.34;64.42;101827.81;5016632;28;20337;-85
2023/12/17 09:52:52;;;;;;;;;;;;;;;4.27;63.77;101825.63;5034126;28;19905;-84
2023/12/17 09:55:18;;;;;;;;;;;;;;;4.32;64.07;101827.06;5014576;28;20449;-83
2023/12/17 09:57:44;;;;;;;;;;;;;;;4.28;63.43;101824.69;5016311;28;19913;-85
2023/12/17 10:00:11;;;;;;;;;;;;;;;4.36;64.09;101818.13;5033744;28;19913;-83
2023/12/17 10:02:37;;;;;;;;;;;;;;;4.45;64.03;101825.47;5034547;28;19913;-85
2023/12/17 10:05:02;;;;;;;;;;;;;;;4.50;63.57;101822.66;5021169;28;19936;-85
2023/12/17 10:07:28;;;;;;;;;;;;;;;4.48;63.72;101816.66;5035178;28;20008;-82
2023/12/17 10:09:53;;;;;;;;;;;;;;;4.49;63.21;101818.34;5033903;28;19913;-85
2023/12/17 10:12:18;;;;;;;;;;;;;;;4.52;63.72;101807.72;5033668;28;19936;-87
2023/12/17 10:14:44;;;;;;;;;;;;;;;4.52;63.18;101812.09;5015700;28;20413;-88
2023/12/17 10:17:11;;;;;;;;;;;;;;;4.56;63.13;101804.00;5015672;28;19913;-87
2023/12/17 10:19:37;;;;;;;;;;;;;;;4.56;62.94;101797.91;5033052;28;20370;-88
2023/12/17 10:22:14;;;;;;;;;;;;;;;4.51;63.01;101802.56;5015425;28;20003;-86
2023/12/17 10:24:41;;;;;;;;;;;;;;;4.50;62.86;101808.72;5032159;28;20390;-86
2023/12/17 10:27:16;;;;;;;;;;;;;;;4.52;62.75;101809.47;5033316;28;20295;-86
2023/12/17 10:29:42;;;;;;;;;;;;;;;4.61;62.83;101794.13;5015475;28;19964;-85
2023/12/17 10:32:10;;;;;;;;;;;;;;;4.66;62.01;101794.72;5015096;28;19913;-86
2023/12/17 10:34:36;;;;;;;;;;;;;;;4.69;61.53;101788.47;5033319;28;19920;-87
2023/12/17 10:37:02;;;;;;;;;;;;;;;4.75;63.31;101799.44;5015047;28;19917;-87
2023/12/17 10:39:27;;;;;;;;;;;;;;;4.66;62.45;101789.47;5015010;28;19960;-86
2023/12/17 10:41:54;;;;;;;;;;;;;;;4.66;62.46;101793.88;5032472;28;19960;-86
2023/12/17 10:44:20;;;;;;;;;;;;;;;4.69;62.16;101786.69;5014823;28;19921;-85
2023/12/17 10:46:45;;;;;;;;;;;;;;;4.69;61.57;101791.06;5032663;28;19917;-85
2023/12/17 10:49:11;;;;;;;;;;;;;;;4.75;62.42;101796.81;5032386;28;19983;-85
2023/12/17 10:51:41;;;;;;;;;;;;;;;4.74;62.02;101789.88;5014637;28;20362;-85
2023/12/17 10:54:06;;;;;;;;;;;;;;;4.77;62.39;101788.88;5032370;28;19986;-84
2023/12/17 10:56:34;;;;;;;;;;;;;;;4.76;62.15;101781.97;5032255;28;20426;-85
2023/12/17 10:59:02;;;;;;;;;;;;;;;4.78;63.57;101785.34;5014529;28;19920;-82
2023/12/17 11:01:28;;;;;;;;;;;;;;;4.76;61.94;101784.56;5032079;28;19913;-81
2023/12/17 11:03:54;;;;;;;;;;;;;;;4.72;61.11;101777.81;5032075;28;19921;-82
2023/12/17 11:06:19;;;;;;;;;;;;;;;4.67;61.51;101772.84;5014425;28;20325;-81
2023/12/17 11:08:45;;;;;;;;;;;;;;;4.75;62.73;101778.50;5014472;28;19967;-81
2023/12/17 11:11:10;;;;;;;;;;;;;;;4.75;62.79;101775.88;5032130;28;19920;-81
2023/12/17 11:13:36;;;;;;;;;;;;;;;4.77;62.70;101770.56;5032178;28;19913;-80
2023/12/17 11:16:24;;;;;;;;;;;;;;;4.80;63.46;101770.38;5032099;28;20357;-80
2023/12/17 11:18:52;;;;;;;;;;;;;;;4.80;62.99;101759.91;5006565;28;20314;-81
2023/12/17 11:21:20;;;;;;;;;;;;;;;4.85;63.50;101752.66;5029945;28;20426;-81
2023/12/17 11:23:47;;;;;;;;;;;;;;;4.86;63.32;101756.94;5031812;28;19921;-81
2023/12/17 11:26:12;;;;;;;;;;;;;;;4.88;63.28;101751.63;5031801;28;19917;-83
2023/12/17 11:28:38;;;;;;;;;;;;;;;4.88;63.53;101746.41;5014131;28;19928;-80
2023/12/17 11:31:04;;;;;;;;;;;;;;;4.89;63.87;101754.16;5031957;28;19956;-80
2023/12/17 11:33:30;;;;;;;;;;;;;;;4.87;63.92;101744.72;5031922;28;19913;-80
2023/12/17 11:35:55;;;;;;;;;;;;;;;4.85;63.41;101736.09;5031715;28;19919;-82
2023/12/17 11:38:22;;;;;;;;;;;;;;;4.86;62.75;101740.41;5014057;28;20020;-81
2023/12/17 11:40:47;;;;;;;;;;;;;;;4.83;62.95;101737.97;5013890;28;19913;-81
2023/12/17 11:43:12;;;;;;;;;;;;;;;4.88;63.39;101730.69;5013288;28;19913;-81
2023/12/17 11:45:44;;;;;;;;;;;;;;;4.90;63.00;101719.19;5014085;28;19967;-81
2023/12/17 11:48:13;;;;;;;;;;;;;;;4.91;63.47;101717.44;5013692;28;20400;-81
2023/12/17 11:50:39;;;;;;;;;;;;;;;4.91;63.14;101710.41;5031617;28;19924;-81
2023/12/17 11:53:05;;;;;;;;;;;;;;;4.88;62.99;101710.59;5031803;28;19966;-81
2023/12/17 11:55:39;;;;;;;;;;;;;;;4.97;64.14;101710.06;5031698;28;19963;-81
2023/12/17 11:58:04;;;;;;;;;;;;;;;4.97;63.18;101709.22;5031934;28;19924;-80
2023/12/17 12:00:30;;;;;;;;;;;;;;;4.94;62.49;101709.41;5031851;28;20325;-80
2023/12/17 12:02:55;;;;;;;;;;;;;;;4.96;62.97;101711.00;5013871;28;19919;-79
2023/12/17 12:05:20;;;;;;;;;;;;;;;4.97;63.26;101710.06;5031829;28;20401;-79
2023/12/17 12:07:46;;;;;;;;;;;;;;;4.98;62.97;101695.19;5031966;28;19913;-79
2023/12/17 12:10:11;;;;;;;;;;;;;;;5.02;62.54;101699.31;5031850;28;19920;-79
2023/12/17 12:12:37;;;;;;;;;;;;;;;5.02;62.65;101692.31;5013794;28;19913;-79
2023/12/17 12:15:03;;;;;;;;;;;;;;;5.04;62.30;101687.81;5013709;28;19947;-79
2023/12/17 12:17:35;;;;;;;;;;;;;;;5.04;62.98;101689.59;5031495;28;19913;-79
2023/12/17 12:20:00;;;;;;;;;;;;;;;5.01;61.34;101685.38;5031679;28;19917;-79
2023/12/17 12:22:29;;;;;;;;;;;;;;;5.04;62.90;101684.38;5031720;28;20413;-79
2023/12/17 12:24:57;;;;;;;;;;;;;;;5.02;61.29;101686.22;5039202;28;19901;-79
2023/12/17 12:27:23;;;;;;;;;;;;;;;4.99;62.64;101691.66;5035945;28;19917;-79
2023/12/17 12:29:48;;;;;;;;;;;;;;;5.02;62.12;101691.47;5031716;28;19920;-79
2023/12/17 12:32:27;;;;;;;;;;;;;;;5.03;62.98;101690.53;5030100;28;19913;-78
2023/12/17 12:34:53;;;;;;;;;;;;;;;5.01;62.63;101700.25;5014157;28;19913;-79
2023/12/17 12:37:31;;;;;;;;;;;;;;;5.06;62.06;101698.22;5031132;28;20386;-79
2023/12/17 12:39:57;;;;;;;;;;;;;;;5.07;62.33;101690.25;5031303;28;19921;-79
2023/12/17 12:42:22;;;;;;;;;;;;;;;5.09;62.49;101691.00;5031325;28;19917;-79
2023/12/17 12:44:48;;;;;;;;;;;;;;;5.13;62.82;101693.44;5031204;28;20361;-80
2023/12/17 12:47:13;;;;;;;;;;;;;;;5.11;61.17;101691.78;5029605;28;19919;-79
2023/12/17 12:49:39;;;;;;;;;;;;;;;5.17;62.48;101692.34;5031019;28;19921;-80
2023/12/17 12:52:04;;;;;;;;;;;;;;;5.19;61.96;101690.47;5031068;28;19921;-80
2023/12/17 12:54:30;;;;;;;;;;;;;;;5.21;62.04;101697.34;5033593;28;20371;-80
2023/12/17 12:56:55;;;;;;;;;;;;;;;5.21;61.30;101691.25;5034492;28;19920;-80
2023/12/17 12:59:20;;;;;;;;;;;;;;;5.24;62.51;101696.31;5034611;28;19913;-80
2023/12/17 13:01:46;;;;;;;;;;;;;;;5.25;62.58;101698.84;5034677;28;19919;-80
2023/12/17 13:04:11;;;;;;;;;;;;;;;5.28;62.61;101697.81;5034531;28;20405;-80
2023/12/17 13:06:36;;;;;;;;;;;;;;;5.30;62.88;101688.94;5034464;28;19913;-80
2023/12/17 13:09:04;;;;;;;;;;;;;;;5.31;63.34;101688.00;5016578;28;19924;-80
2023/12/17 13:11:30;;;;;;;;;;;;;;;5.24;62.88;101683.22;5032990;28;20310;-80
2023/12/17 13:13:56;;;;;;;;;;;;;;;5.22;63.07;101685.09;5034212;28;19913;-80
2023/12/17 13:16:21;;;;;;;;;;;;;;;5.20;63.08;101671.22;5034402;28;19913;-80
2023/12/17 13:18:47;;;;;;;;;;;;;;;5.23;63.23;101671.91;5034366;28;19921;-82
2023/12/17 13:21:12;;;;;;;;;;;;;;;5.25;63.64;101677.88;5034283;28;20357;-81
2023/12/17 13:23:37;;;;;;;;;;;;;;;5.26;62.98;101673.50;5034017;28;19917;-81
2023/12/17 13:26:03;;;;;;;;;;;;;;;5.25;62.96;101671.81;5016409;28;19913;-83
2023/12/17 13:28:28;;;;;;;;;;;;;;;5.26;63.09;101670.88;5016481;28;20310;-82
2023/12/17 13:30:54;;;;;;;;;;;;;;;5.28;63.44;101671.63;5034037;28;19905;-82
2023/12/17 13:33:19;;;;;;;;;;;;;;;5.29;63.58;101668.06;5016849;28;19972;-82
2023/12/17 13:35:44;;;;;;;;;;;;;;;5.31;63.61;101668.81;5034001;28;20450;-84
2023/12/17 13:38:10;;;;;;;;;;;;;;;5.33;63.81;101669.56;5034503;28;19979;-83